Time,TemperatureF,DewpointF,PressureIn,WindDirection,WindDirectionDegrees,WindSpeedMPH,WindSpeedGustMPH,Humidity,HourlyPrecipIn,Conditions,Clouds,dailyrainin,SolarRadiationWatts/m^2,SoftwareType,DateUTC
2013-04-09 00:01:00,57.0,27.0,-100.00,SSW,203,10.0,31.0,31,0.00,,,0.00,0.000000,,2013-04-09 06:01:00,
2013-04-09 00:22:00,57.0,27.0,-100.00,SSW,203,10.0,31.0,31,0.00,,,0.00,0.000000,,2013-04-09 06:22:00,
2013-04-09 00:32:00,57.0,27.0,-100.00,SSW,203,10.0,31.0,31,0.00,,,0.00,0.000000,,2013-04-09 06:32:00,
2013-04-09 00:42:00,57.0,27.0,-100.00,SSW,203,10.0,31.0,31,0.00,,,0.00,0.000000,,2013-04-09 06:42:00,
2013-04-09 00:52:00,57.0,27.0,-100.00,SSW,203,10.0,31.0,31,0.00,,,0.00,0.000000,,2013-04-09 06:52:00,
2013-04-09 01:01:00,55.0,29.0,-100.00,SSW,202,15.0,29.0,36,0.00,,,0.00,0.000000,,2013-04-09 07:01:00,
2013-04-09 01:22:00,55.0,29.0,-100.00,SSW,202,15.0,29.0,36,0.00,,,0.00,0.000000,,2013-04-09 07:22:00,
2013-04-09 01:32:00,55.0,29.0,-100.00,SSW,202,15.0,29.0,36,0.00,,,0.00,0.000000,,2013-04-09 07:32:00,
2013-04-09 01:42:00,55.0,29.0,-100.00,SSW,202,15.0,29.0,36,0.00,,,0.00,0.000000,,2013-04-09 07:42:00,
2013-04-09 01:52:00,55.0,29.0,-100.00,SSW,202,15.0,29.0,36,0.00,,,0.00,0.000000,,2013-04-09 07:52:00,
2013-04-09 02:01:00,53.0,26.0,-100.00,SSW,195,9.0,26.0,35,0.00,,,0.00,0.000000,,2013-04-09 08:01:00,
2013-04-09 02:32:00,53.0,26.0,-100.00,SSW,195,9.0,26.0,35,0.00,,,0.00,0.000000,,2013-04-09 08:32:00,
2013-04-09 02:42:00,53.0,26.0,-100.00,SSW,195,9.0,26.0,35,0.00,,,0.00,0.000000,,2013-04-09 08:42:00,
2013-04-09 02:52:00,53.0,26.0,-100.00,SSW,195,9.0,26.0,35,0.00,,,0.00,0.000000,,2013-04-09 08:52:00,
2013-04-09 03:01:00,52.0,26.0,-100.00,SSW,193,17.0,28.0,36,0.00,,,0.00,0.000000,,2013-04-09 09:01:00,
2013-04-09 03:22:00,52.0,26.0,-100.00,SSW,193,17.0,28.0,36,0.00,,,0.00,0.000000,,2013-04-09 09:22:00,
2013-04-09 03:33:00,52.0,26.0,-100.00,SSW,193,17.0,28.0,36,0.00,,,0.00,0.000000,,2013-04-09 09:33:00,
2013-04-09 03:44:00,52.0,26.0,-100.00,SSW,193,17.0,28.0,36,0.00,,,0.00,0.000000,,2013-04-09 09:44:00,
2013-04-09 03:53:00,52.0,26.0,-100.00,SSW,193,17.0,28.0,36,0.00,,,0.00,0.000000,,2013-04-09 09:53:00,
2013-04-09 04:01:00,52.0,24.0,-100.00,SSW,197,23.0,38.0,33,0.00,,,0.00,0.000000,,2013-04-09 10:01:00,
2013-04-09 04:24:00,52.0,24.0,-100.00,SSW,197,23.0,38.0,33,0.00,,,0.00,0.000000,,2013-04-09 10:24:00,
2013-04-09 04:33:00,52.0,24.0,-100.00,SSW,197,23.0,38.0,33,0.00,,,0.00,0.000000,,2013-04-09 10:33:00,
2013-04-09 04:43:00,52.0,24.0,-100.00,SSW,197,23.0,38.0,33,0.00,,,0.00,0.000000,,2013-04-09 10:43:00,
2013-04-09 04:53:00,52.0,24.0,-100.00,SSW,197,23.0,38.0,33,0.00,,,0.00,0.000000,,2013-04-09 10:53:00,
2013-04-09 05:01:00,48.0,22.0,-100.00,WNW,285,16.0,41.0,36,0.00,,,0.00,0.000000,,2013-04-09 11:01:00,
2013-04-09 05:22:00,48.0,22.0,-100.00,WNW,285,16.0,41.0,36,0.00,,,0.00,0.000000,,2013-04-09 11:22:00,
2013-04-09 05:32:00,48.0,22.0,-100.00,WNW,285,16.0,41.0,36,0.00,,,0.00,0.000000,,2013-04-09 11:32:00,
2013-04-09 05:42:00,48.0,22.0,-100.00,WNW,285,16.0,41.0,36,0.00,,,0.00,0.000000,,2013-04-09 11:42:00,
2013-04-09 05:52:00,48.0,22.0,-100.00,WNW,285,16.0,41.0,36,0.00,,,0.00,0.000000,,2013-04-09 11:52:00,
2013-04-09 06:01:00,44.0,23.0,-100.00,WNW,285,19.0,37.0,43,0.00,,,0.00,0.000000,,2013-04-09 12:01:00,
2013-04-09 06:22:00,44.0,23.0,-100.00,WNW,285,19.0,37.0,43,0.00,,,0.00,0.000000,,2013-04-09 12:22:00,
2013-04-09 06:33:00,44.0,23.0,-100.00,WNW,285,19.0,37.0,43,0.00,,,0.00,0.000000,,2013-04-09 12:33:00,
2013-04-09 06:43:00,44.0,23.0,-100.00,WNW,285,19.0,37.0,43,0.00,,,0.00,0.000000,,2013-04-09 12:43:00,
2013-04-09 06:53:00,44.0,23.0,-100.00,WNW,285,19.0,37.0,43,0.00,,,0.00,0.000000,,2013-04-09 12:53:00,
2013-04-09 07:01:00,40.0,31.0,-100.00,West,276,18.0,36.0,71,0.00,,,0.00,1.000000,,2013-04-09 13:01:00,
2013-04-09 07:33:00,40.0,31.0,-100.00,West,276,18.0,36.0,71,0.00,,,0.00,1.000000,,2013-04-09 13:33:00,
2013-04-09 07:43:00,40.0,31.0,-100.00,West,276,18.0,36.0,71,0.00,,,0.00,1.000000,,2013-04-09 13:43:00,
2013-04-09 07:53:00,40.0,31.0,-100.00,West,276,18.0,36.0,71,0.00,,,0.00,1.000000,,2013-04-09 13:53:00,
2013-04-09 08:01:00,40.0,32.0,-100.00,West,268,12.0,30.0,73,0.00,,,0.00,14.000000,,2013-04-09 14:01:00,
2013-04-09 08:33:00,40.0,32.0,-100.00,West,268,12.0,30.0,73,0.00,,,0.00,14.000000,,2013-04-09 14:33:00,
2013-04-09 08:43:00,40.0,32.0,-100.00,West,268,12.0,30.0,73,0.00,,,0.00,14.000000,,2013-04-09 14:43:00,
2013-04-09 08:52:00,40.0,32.0,-100.00,West,268,12.0,30.0,73,0.00,,,0.00,14.000000,,2013-04-09 14:52:00,
2013-04-09 09:01:00,40.0,30.0,-100.00,WNW,284,12.0,31.0,68,0.00,,,0.00,85.000000,,2013-04-09 15:01:00,
2013-04-09 09:34:00,40.0,30.0,-100.00,WNW,284,12.0,31.0,68,0.00,,,0.00,85.000000,,2013-04-09 15:34:00,
2013-04-09 09:44:00,40.0,30.0,-100.00,WNW,284,12.0,31.0,68,0.00,,,0.00,85.000000,,2013-04-09 15:44:00,
2013-04-09 09:53:00,40.0,30.0,-100.00,WNW,284,12.0,31.0,68,0.00,,,0.00,85.000000,,2013-04-09 15:53:00,
2013-04-09 10:01:00,43.0,29.0,-100.00,WSW,254,10.0,25.0,57,0.00,,,0.00,259.000000,,2013-04-09 16:01:00,
2013-04-09 10:34:00,43.0,29.0,-100.00,WSW,254,10.0,25.0,57,0.00,,,0.00,259.000000,,2013-04-09 16:34:00,
2013-04-09 10:43:00,43.0,29.0,-100.00,WSW,254,10.0,25.0,57,0.00,,,0.00,259.000000,,2013-04-09 16:43:00,
2013-04-09 10:54:00,43.0,29.0,-100.00,WSW,254,10.0,25.0,57,0.00,,,0.00,259.000000,,2013-04-09 16:54:00,
2013-04-09 11:01:00,46.0,26.0,-100.00,WSW,246,9.0,24.0,46,0.00,,,0.00,421.000000,,2013-04-09 17:01:00,
2013-04-09 11:33:00,46.0,26.0,-100.00,WSW,246,9.0,24.0,46,0.00,,,0.00,421.000000,,2013-04-09 17:33:00,
2013-04-09 11:43:00,46.0,26.0,-100.00,WSW,246,9.0,24.0,46,0.00,,,0.00,421.000000,,2013-04-09 17:43:00,
2013-04-09 11:54:00,46.0,26.0,-100.00,WSW,246,9.0,24.0,46,0.00,,,0.00,421.000000,,2013-04-09 17:54:00,
2013-04-09 12:01:00,48.0,25.0,-100.00,West,266,9.0,30.0,41,0.00,,,0.00,455.000000,,2013-04-09 18:01:00,
2013-04-09 12:33:00,48.0,25.0,-100.00,West,266,9.0,30.0,41,0.00,,,0.00,455.000000,,2013-04-09 18:33:00,
2013-04-09 12:43:00,48.0,25.0,-100.00,West,266,9.0,30.0,41,0.00,,,0.00,455.000000,,2013-04-09 18:43:00,
2013-04-09 12:53:00,48.0,25.0,-100.00,West,266,9.0,30.0,41,0.00,,,0.00,455.000000,,2013-04-09 18:53:00,
2013-04-09 13:01:00,51.0,17.0,-100.00,West,274,11.0,41.0,26,0.00,,,0.00,747.000000,,2013-04-09 19:01:00,
2013-04-09 13:53:00,51.0,17.0,-100.00,West,274,11.0,41.0,26,0.00,,,0.00,747.000000,,2013-04-09 19:53:00,
2013-04-09 14:01:00,51.0,12.0,-100.00,West,264,17.0,33.0,21,0.00,,,0.00,568.000000,,2013-04-09 20:01:00,
2013-04-09 14:34:00,51.0,12.0,-100.00,West,264,17.0,33.0,21,0.00,,,0.00,568.000000,,2013-04-09 20:34:00,
2013-04-09 14:44:00,51.0,12.0,-100.00,West,264,17.0,33.0,21,0.00,,,0.00,568.000000,,2013-04-09 20:44:00,
2013-04-09 14:53:00,51.0,12.0,-100.00,West,264,17.0,33.0,21,0.00,,,0.00,568.000000,,2013-04-09 20:53:00,
2013-04-09 15:01:00,51.0,12.0,-100.00,West,261,14.0,31.0,21,0.00,,,0.00,416.000000,,2013-04-09 21:01:00,
2013-04-09 15:33:00,51.0,12.0,-100.00,West,261,14.0,31.0,21,0.00,,,0.00,416.000000,,2013-04-09 21:33:00,
2013-04-09 15:42:00,51.0,12.0,-100.00,West,261,14.0,31.0,21,0.00,,,0.00,416.000000,,2013-04-09 21:42:00,
2013-04-09 15:53:00,51.0,12.0,-100.00,West,261,14.0,31.0,21,0.00,,,0.00,416.000000,,2013-04-09 21:53:00,
2013-04-09 16:01:00,51.0,12.0,-100.00,West,278,17.0,34.0,21,0.00,,,0.00,370.000000,,2013-04-09 22:01:00,
2013-04-09 16:23:00,51.0,12.0,-100.00,West,278,17.0,34.0,21,0.00,,,0.00,370.000000,,2013-04-09 22:23:00,
2013-04-09 16:33:00,51.0,12.0,-100.00,West,278,17.0,34.0,21,0.00,,,0.00,370.000000,,2013-04-09 22:33:00,
2013-04-09 16:43:00,51.0,12.0,-100.00,West,278,17.0,34.0,21,0.00,,,0.00,370.000000,,2013-04-09 22:43:00,
2013-04-09 16:53:00,51.0,12.0,-100.00,West,278,17.0,34.0,21,0.00,,,0.00,370.000000,,2013-04-09 22:53:00,
2013-04-09 17:01:00,50.0,13.0,-100.00,WNW,288,17.0,31.0,22,0.00,,,0.00,308.000000,,2013-04-09 23:01:00,
2013-04-09 17:23:00,50.0,13.0,-100.00,WNW,288,17.0,31.0,22,0.00,,,0.00,308.000000,,2013-04-09 23:23:00,
2013-04-09 17:33:00,50.0,13.0,-100.00,WNW,288,17.0,31.0,22,0.00,,,0.00,308.000000,,2013-04-09 23:33:00,
2013-04-09 17:43:00,50.0,13.0,-100.00,WNW,288,17.0,31.0,22,0.00,,,0.00,308.000000,,2013-04-09 23:43:00,
2013-04-09 17:53:00,50.0,13.0,-100.00,WNW,288,17.0,31.0,22,0.00,,,0.00,308.000000,,2013-04-09 23:53:00,
2013-04-09 18:01:00,50.0,20.0,-100.00,West,272,12.0,32.0,30,0.00,,,0.00,345.000000,,2013-04-10 00:01:00,
2013-04-09 18:33:00,50.0,20.0,-100.00,West,272,12.0,32.0,30,0.00,,,0.00,345.000000,,2013-04-10 00:33:00,
2013-04-09 18:43:00,50.0,20.0,-100.00,West,272,12.0,32.0,30,0.00,,,0.00,345.000000,,2013-04-10 00:43:00,
2013-04-09 18:53:00,50.0,20.0,-100.00,West,272,12.0,32.0,30,0.00,,,0.00,345.000000,,2013-04-10 00:53:00,
2013-04-09 19:01:00,47.0,18.0,-100.00,West,277,13.0,25.0,31,0.00,,,0.00,221.000000,,2013-04-10 01:01:00,
2013-04-09 19:23:00,47.0,18.0,-100.00,West,277,13.0,25.0,31,0.00,,,0.00,221.000000,,2013-04-10 01:23:00,
2013-04-09 19:33:00,47.0,18.0,-100.00,West,277,13.0,25.0,31,0.00,,,0.00,221.000000,,2013-04-10 01:33:00,
2013-04-09 19:43:00,47.0,18.0,-100.00,West,277,13.0,25.0,31,0.00,,,0.00,221.000000,,2013-04-10 01:43:00,
2013-04-09 19:53:00,47.0,18.0,-100.00,West,277,13.0,25.0,31,0.00,,,0.00,221.000000,,2013-04-10 01:53:00,
2013-04-09 20:01:00,46.0,16.0,-100.00,WNW,294,13.0,27.0,29,0.00,,,0.00,24.000000,,2013-04-10 02:01:00,
2013-04-09 20:33:00,46.0,16.0,-100.00,WNW,294,13.0,27.0,29,0.00,,,0.00,24.000000,,2013-04-10 02:33:00,
2013-04-09 20:43:00,46.0,16.0,-100.00,WNW,294,13.0,27.0,29,0.00,,,0.00,24.000000,,2013-04-10 02:43:00,
2013-04-09 20:53:00,46.0,16.0,-100.00,WNW,294,13.0,27.0,29,0.00,,,0.00,24.000000,,2013-04-10 02:53:00,
2013-04-09 21:01:00,43.0,20.0,-100.00,WNW,286,7.0,23.0,40,0.00,,,0.00,0.000000,,2013-04-10 03:01:00,
2013-04-09 21:22:00,43.0,20.0,-100.00,WNW,286,7.0,23.0,40,0.00,,,0.00,0.000000,,2013-04-10 03:22:00,
2013-04-09 21:33:00,43.0,20.0,-100.00,WNW,286,7.0,23.0,40,0.00,,,0.00,0.000000,,2013-04-10 03:33:00,
2013-04-09 21:43:00,43.0,20.0,-100.00,WNW,286,7.0,23.0,40,0.00,,,0.00,0.000000,,2013-04-10 03:43:00,
2013-04-09 21:53:00,43.0,20.0,-100.00,WNW,286,7.0,23.0,40,0.00,,,0.00,0.000000,,2013-04-10 03:53:00,
2013-04-09 22:01:00,41.0,21.0,-100.00,West,272,6.0,19.0,44,0.00,,,0.00,0.000000,,2013-04-10 04:01:00,
2013-04-09 22:23:00,41.0,21.0,-100.00,West,272,6.0,19.0,44,0.00,,,0.00,0.000000,,2013-04-10 04:23:00,
2013-04-09 22:33:00,41.0,21.0,-100.00,West,272,6.0,19.0,44,0.00,,,0.00,0.000000,,2013-04-10 04:33:00,
2013-04-09 22:43:00,41.0,21.0,-100.00,West,272,6.0,19.0,44,0.00,,,0.00,0.000000,,2013-04-10 04:43:00,
2013-04-09 22:53:00,41.0,21.0,-100.00,West,272,6.0,19.0,44,0.00,,,0.00,0.000000,,2013-04-10 04:53:00,
2013-04-09 23:01:00,40.0,21.0,-100.00,WNW,293,6.0,16.0,47,0.00,,,0.00,0.000000,,2013-04-10 05:01:00,
2013-04-09 23:23:00,40.0,21.0,-100.00,WNW,293,6.0,16.0,47,0.00,,,0.00,0.000000,,2013-04-10 05:23:00,
2013-04-09 23:33:00,40.0,21.0,-100.00,WNW,293,6.0,16.0,47,0.00,,,0.00,0.000000,,2013-04-10 05:33:00,
2013-04-09 23:43:00,40.0,21.0,-100.00,WNW,293,6.0,16.0,47,0.00,,,0.00,0.000000,,2013-04-10 05:43:00,
2013-04-09 23:53:00,40.0,21.0,-100.00,WNW,293,6.0,16.0,47,0.00,,,0.00,0.000000,,2013-04-10 05:53:00,